createdAt,value
2019-02-15T00:02:26.149Z,46.58
2019-02-15T00:04:54.709Z,44.23
2019-02-15T00:07:23.320Z,43.52
2019-02-15T00:09:52.017Z,42.38
2019-02-15T00:12:20.872Z,46.30
2019-02-15T00:14:49.943Z,47.83
2019-02-15T00:17:20.549Z,48.42
2019-02-15T00:19:50.607Z,42.13
2019-02-15T00:22:19.367Z,43.65
2019-02-15T00:24:48.328Z,43.70
2019-02-15T00:27:17.163Z,43.95
2019-02-15T00:29:46.185Z,42.67
2019-02-15T00:32:15.407Z,44.55
2019-02-15T00:34:44.163Z,46.35
2019-02-15T00:37:13.098Z,43.17
2019-02-15T00:39:41.787Z,43.90
2019-02-15T00:42:10.650Z,43.05
2019-02-15T00:44:39.303Z,42.75
2019-02-15T00:47:21.614Z,43.28
2019-02-15T00:50:07.974Z,43.75
2019-02-15T00:52:38.350Z,43.08
2019-02-15T00:55:08.510Z,43.92
2019-02-15T00:57:44.572Z,43.90
2019-02-15T01:00:24.134Z,43.58
2019-02-15T01:02:58.135Z,43.30
2019-02-15T01:05:40.219Z,42.58
2019-02-15T01:08:10.378Z,43.28
2019-02-15T01:10:49.540Z,42.43
2019-02-15T01:13:18.274Z,42.78
2019-02-15T01:15:47.282Z,41.10
2019-02-15T01:18:16.215Z,43.45
2019-02-15T01:20:44.716Z,40.38
2019-02-15T01:23:13.681Z,40.25
2019-02-15T01:25:43.843Z,44.67
2019-02-15T01:28:14.131Z,41.75
2019-02-15T01:30:50.410Z,40.90
2019-02-15T01:33:21.281Z,43.50
2019-02-15T01:35:54.790Z,42.65
2019-02-15T01:38:31.387Z,41.48
2019-02-15T01:41:19.953Z,42.03
2019-02-15T01:43:53.031Z,40.03
2019-02-15T01:46:27.077Z,42.13
2019-02-15T01:48:55.921Z,40.17
2019-02-15T01:51:24.819Z,42.13
2019-02-15T01:53:53.612Z,43.33
2019-02-15T01:56:22.232Z,42.60
2019-02-15T01:58:51.094Z,42.40
2019-02-15T02:01:21.259Z,41.08
2019-02-15T02:03:49.849Z,40.60
2019-02-15T02:06:18.697Z,49.20
2019-02-15T02:08:47.486Z,49.27
2019-02-15T02:11:16.094Z,44.93
2019-02-15T02:13:49.662Z,44.05
2019-02-15T02:16:15.334Z,43.73
2019-02-15T02:18:43.949Z,45.12
2019-02-15T02:21:12.971Z,41.30
2019-02-15T02:23:41.602Z,44.58
2019-02-15T02:26:10.556Z,43.02
2019-02-15T02:28:39.343Z,46.85
2019-02-15T02:31:08.145Z,46.90
2019-02-15T02:33:36.974Z,41.10
2019-02-15T02:36:05.528Z,41.75
2019-02-15T02:38:34.581Z,38.60
2019-02-15T02:41:03.037Z,39.53
2019-02-15T02:43:31.689Z,38.60
2019-02-15T02:46:00.578Z,42.00
2019-02-15T02:48:29.129Z,44.05
2019-02-15T02:50:57.979Z,44.63
2019-02-15T02:53:26.570Z,47.08
2019-02-15T02:55:55.081Z,45.67
2019-02-15T02:58:24.009Z,51.73
2019-02-15T03:00:52.812Z,53.50
2019-02-15T03:03:21.428Z,49.48
2019-02-15T03:05:50.200Z,48.90
2019-02-15T03:08:19.072Z,60.65
2019-02-15T03:10:47.953Z,57.83
2019-02-15T03:13:16.563Z,63.28
2019-02-15T03:15:45.162Z,55.90
2019-02-15T03:18:13.783Z,54.33
2019-02-15T03:20:42.729Z,48.10
2019-02-15T03:23:11.507Z,51.42
2019-02-15T03:25:40.331Z,51.70
2019-02-15T03:28:08.896Z,54.60
2019-02-15T03:30:37.812Z,55.48
2019-02-15T03:33:06.485Z,56.28
2019-02-15T03:35:34.970Z,54.58
2019-02-15T03:38:05.205Z,60.67
2019-02-15T03:40:35.542Z,51.30
2019-02-15T03:43:04.504Z,50.83
2019-02-15T03:45:33.118Z,44.58
2019-02-15T03:48:01.871Z,63.90
2019-02-15T03:50:30.862Z,53.68
2019-02-15T03:52:59.711Z,48.80
2019-02-15T03:55:28.760Z,54.65
2019-02-15T03:57:57.335Z,55.35
2019-02-15T04:00:25.938Z,68.62
2019-02-15T04:02:54.813Z,61.58
2019-02-15T04:05:23.748Z,59.05
2019-02-15T04:07:52.633Z,56.85
2019-02-15T04:10:21.313Z,64.27
2019-02-15T04:12:49.934Z,63.05
2019-02-15T04:15:18.739Z,56.20
2019-02-15T04:17:47.560Z,54.42
2019-02-15T04:20:16.362Z,58.58
2019-02-15T04:22:45.377Z,59.88
2019-02-15T04:25:14.171Z,70.65
2019-02-15T04:27:43.199Z,65.40
2019-02-15T04:30:12.224Z,64.35
2019-02-15T04:32:41.049Z,60.60
2019-02-15T04:35:10.003Z,57.35
2019-02-15T04:37:39.848Z,65.92
2019-02-15T04:40:09.128Z,61.48
2019-02-15T04:42:37.901Z,56.58
2019-02-15T04:45:06.827Z,57.75
2019-02-15T04:47:35.460Z,57.85
2019-02-15T04:50:04.183Z,53.65
2019-02-15T04:52:32.834Z,57.48
2019-02-15T04:55:01.686Z,52.00
2019-02-15T04:57:30.165Z,52.45
2019-02-15T04:59:59.008Z,49.27
2019-02-15T05:02:27.789Z,54.33
2019-02-15T05:04:56.310Z,52.08
2019-02-15T05:07:26.826Z,61.25
2019-02-15T05:09:55.403Z,60.15
2019-02-15T05:12:24.326Z,55.10
2019-02-15T05:14:53.581Z,46.98
2019-02-15T05:17:22.417Z,63.08
2019-02-15T05:19:51.023Z,60.52
2019-02-15T05:22:19.569Z,60.12
2019-02-15T05:24:48.627Z,69.55
2019-02-15T05:27:17.341Z,75.00
2019-02-15T05:29:46.070Z,74.53
2019-02-15T05:32:15.816Z,102.75
2019-02-15T05:34:44.723Z,105.92
2019-02-15T05:37:13.549Z,106.25
2019-02-15T05:39:42.112Z,94.25
2019-02-15T05:42:10.977Z,103.38
2019-02-15T05:44:39.811Z,82.78
2019-02-15T05:47:08.401Z,77.70
2019-02-15T05:49:37.347Z,81.87
2019-02-15T05:52:06.215Z,77.80
2019-02-15T05:54:34.912Z,86.20
2019-02-15T05:57:03.534Z,89.90
2019-02-15T05:59:32.119Z,91.97
2019-02-15T06:02:00.750Z,97.97
2019-02-15T06:04:29.627Z,95.87
2019-02-15T06:06:58.653Z,102.75
2019-02-15T06:09:27.642Z,102.20
2019-02-15T06:11:56.161Z,105.80
2019-02-15T06:14:24.803Z,96.57
2019-02-15T06:16:53.436Z,82.08
2019-02-15T06:19:22.151Z,79.40
2019-02-15T06:21:51.561Z,75.40
2019-02-15T06:24:20.349Z,76.97
2019-02-15T06:26:48.849Z,79.22
2019-02-15T06:29:17.559Z,78.12
2019-02-15T06:31:46.364Z,75.05
2019-02-15T06:34:15.050Z,81.00
2019-02-15T06:36:43.921Z,80.55
2019-02-15T06:39:12.867Z,82.40
2019-02-15T06:41:41.401Z,81.72
2019-02-15T06:44:10.118Z,80.65
2019-02-15T06:46:38.740Z,80.75
2019-02-15T06:49:07.391Z,81.50
2019-02-15T06:51:36.140Z,82.35
2019-02-15T06:54:04.867Z,89.70
2019-02-15T06:56:33.811Z,85.97
2019-02-15T06:59:06.970Z,78.33
2019-02-15T07:01:53.792Z,75.70
2019-02-15T07:04:23.921Z,74.60
2019-02-15T07:06:52.445Z,81.63
2019-02-15T07:09:21.371Z,74.03
2019-02-15T07:11:50.134Z,73.15
2019-02-15T07:14:20.846Z,70.37
2019-02-15T07:16:49.178Z,73.42
2019-02-15T07:19:18.129Z,76.60
2019-02-15T07:21:47.023Z,78.12
2019-02-15T07:24:15.832Z,84.05
2019-02-15T07:26:44.698Z,84.28
2019-02-15T07:29:13.212Z,80.32
2019-02-15T07:31:42.038Z,87.27
2019-02-15T07:34:11.029Z,85.32
2019-02-15T07:36:39.952Z,72.62
2019-02-15T07:39:08.953Z,73.12
2019-02-15T07:41:37.563Z,74.87
2019-02-15T07:44:06.122Z,69.92
2019-02-15T07:46:34.859Z,72.67
2019-02-15T07:49:03.789Z,74.00
2019-02-15T07:51:32.344Z,68.65
2019-02-15T07:54:01.338Z,67.25
2019-02-15T07:56:30.040Z,75.75
2019-02-15T07:58:59.994Z,72.25
2019-02-15T08:01:28.494Z,71.85
2019-02-15T08:03:57.188Z,72.35
2019-02-15T08:06:26.129Z,72.70
2019-02-15T08:08:55.642Z,73.92
2019-02-15T08:11:24.243Z,71.12
2019-02-15T08:13:52.847Z,72.45
2019-02-15T08:16:21.691Z,68.45
2019-02-15T08:18:50.520Z,70.30
2019-02-15T08:21:19.508Z,68.40
2019-02-15T08:23:48.071Z,67.17
2019-02-15T08:26:16.684Z,65.90
2019-02-15T08:28:45.515Z,69.40
2019-02-15T08:31:14.342Z,65.35
2019-02-15T08:33:43.179Z,64.03
2019-02-15T08:36:11.686Z,58.63
2019-02-15T08:38:40.209Z,61.95
2019-02-15T08:41:09.086Z,66.90
2019-02-15T08:43:37.944Z,64.92
2019-02-15T08:46:06.888Z,64.35
2019-02-15T08:48:36.204Z,58.68
2019-02-15T08:51:04.938Z,58.35
2019-02-15T08:53:33.808Z,58.35
2019-02-15T08:56:02.648Z,58.73
2019-02-15T08:58:31.258Z,61.68
2019-02-15T09:01:00.938Z,60.90
2019-02-15T09:03:29.724Z,61.65
2019-02-15T09:05:58.490Z,58.63
2019-02-15T09:08:27.243Z,59.95
2019-02-15T09:10:56.053Z,58.70
2019-02-15T09:13:24.850Z,60.52
2019-02-15T09:15:53.598Z,55.43
2019-02-15T09:18:22.229Z,56.42
2019-02-15T09:20:50.843Z,57.13
2019-02-15T09:23:19.603Z,57.35
2019-02-15T09:25:48.276Z,55.30
2019-02-15T09:28:24.997Z,54.88
2019-02-15T09:30:54.192Z,52.45
2019-02-15T09:33:22.952Z,52.45
2019-02-15T09:35:51.724Z,52.43
2019-02-15T09:38:20.778Z,50.85
2019-02-15T09:40:49.582Z,53.78
2019-02-15T09:43:18.260Z,54.50
2019-02-15T09:45:47.060Z,49.60
2019-02-15T09:48:15.890Z,51.85
2019-02-15T09:50:45.039Z,62.27
2019-02-15T09:53:13.692Z,62.70
2019-02-15T09:55:42.488Z,53.73
2019-02-15T09:58:11.401Z,54.50
2019-02-15T10:00:40.186Z,46.55
2019-02-15T10:03:08.913Z,46.80
2019-02-15T10:05:37.879Z,47.35
2019-02-15T10:08:06.596Z,46.98
2019-02-15T10:10:36.348Z,47.60
2019-02-15T10:13:05.178Z,50.88
2019-02-15T10:15:34.051Z,38.95
2019-02-15T10:18:02.839Z,44.80
2019-02-15T10:20:31.655Z,45.50
2019-02-15T10:23:00.434Z,46.02
2019-02-15T10:25:29.370Z,44.40
2019-02-15T10:27:58.188Z,45.65
2019-02-15T10:30:26.801Z,47.13
2019-02-15T10:32:55.597Z,44.70
2019-02-15T10:35:24.208Z,49.93
2019-02-15T10:37:55.999Z,48.10
2019-02-15T10:40:24.609Z,51.90
2019-02-15T10:42:53.384Z,49.63
2019-02-15T10:45:22.296Z,58.25
2019-02-15T10:47:51.340Z,62.60
2019-02-15T10:50:20.154Z,66.82
2019-02-15T10:52:48.849Z,63.20
2019-02-15T10:55:17.376Z,64.03
2019-02-15T10:57:46.329Z,63.83
2019-02-15T11:00:17.160Z,56.40
2019-02-15T11:02:46.071Z,62.10
2019-02-15T11:05:15.047Z,63.05
2019-02-15T11:07:43.899Z,65.40
2019-02-15T11:10:12.763Z,84.62
2019-02-15T11:12:41.234Z,80.20
2019-02-15T11:15:14.198Z,69.37
2019-02-15T11:17:42.795Z,82.05
2019-02-15T11:20:15.845Z,62.85
2019-02-15T11:22:45.897Z,68.47
2019-02-15T11:25:14.680Z,61.48
2019-02-15T11:27:43.507Z,57.40
2019-02-15T11:30:15.654Z,56.30
2019-02-15T11:32:44.178Z,53.40
2019-02-15T11:35:13.502Z,51.18
2019-02-15T11:37:42.323Z,51.05
2019-02-15T11:40:12.497Z,56.13
2019-02-15T11:42:41.408Z,61.98
2019-02-15T11:45:11.110Z,71.92
2019-02-15T11:47:40.200Z,57.80
2019-02-15T11:50:10.240Z,55.65
2019-02-15T11:52:38.841Z,45.25
2019-02-15T11:55:09.351Z,42.93
2019-02-15T11:57:38.349Z,45.73
2019-02-15T12:00:14.156Z,48.83
2019-02-15T12:02:39.939Z,48.33
2019-02-15T12:05:08.880Z,50.10
2019-02-15T12:07:37.723Z,48.60
2019-02-15T12:10:08.362Z,48.52
2019-02-15T12:12:38.950Z,48.23
2019-02-15T12:15:08.688Z,48.58
2019-02-15T12:17:37.599Z,48.17
2019-02-15T12:20:07.858Z,49.30
2019-02-15T12:22:36.865Z,48.13
2019-02-15T12:25:07.747Z,50.90
2019-02-15T12:27:36.489Z,50.43
2019-02-15T12:30:06.702Z,46.80
2019-02-15T12:32:35.632Z,50.58
2019-02-15T12:35:04.651Z,46.58
2019-02-15T12:37:33.514Z,48.70
2019-02-15T12:40:02.466Z,46.35
2019-02-15T12:42:31.244Z,46.05
2019-02-15T12:45:00.273Z,51.10
2019-02-15T12:47:29.085Z,53.00
2019-02-15T12:49:57.568Z,50.65
2019-02-15T12:52:26.495Z,47.88
2019-02-15T12:54:55.327Z,44.60
2019-02-15T12:57:23.907Z,44.45
2019-02-15T12:59:52.671Z,46.05
2019-02-15T13:02:21.320Z,41.37
2019-02-15T13:04:49.843Z,35.95
2019-02-15T13:07:18.625Z,33.55
2019-02-15T13:09:47.050Z,37.30
2019-02-15T13:12:15.612Z,42.38
2019-02-15T13:14:44.301Z,36.50
2019-02-15T13:17:13.117Z,39.15
2019-02-15T13:19:41.908Z,41.48
2019-02-15T13:22:10.486Z,52.65
2019-02-15T13:24:39.307Z,45.63
2019-02-15T13:27:08.348Z,39.23
2019-02-15T13:29:37.303Z,36.03
2019-02-15T13:32:05.946Z,37.20
2019-02-15T13:34:34.610Z,35.45
2019-02-15T13:37:03.229Z,36.53
2019-02-15T13:39:32.039Z,34.33
2019-02-15T13:42:01.053Z,37.20
2019-02-15T13:44:29.561Z,36.75
2019-02-15T13:46:58.336Z,36.23
2019-02-15T13:49:27.353Z,37.63
2019-02-15T13:51:55.858Z,55.35
2019-02-15T13:54:24.793Z,46.90
2019-02-15T13:56:53.773Z,43.38
2019-02-15T13:59:22.566Z,41.48
2019-02-15T14:01:51.295Z,39.75
2019-02-15T14:04:20.054Z,39.13
2019-02-15T14:06:50.291Z,39.80
2019-02-15T14:09:19.018Z,38.50
2019-02-15T14:11:47.934Z,39.50
2019-02-15T14:14:17.632Z,40.20
2019-02-15T14:16:46.282Z,38.23
2019-02-15T14:19:16.299Z,39.03
2019-02-15T14:21:44.928Z,37.95
2019-02-15T14:24:13.611Z,41.33
2019-02-15T14:26:42.479Z,40.95
2019-02-15T14:29:11.310Z,44.20
2019-02-15T14:31:39.901Z,40.33
2019-02-15T14:34:08.566Z,46.05
2019-02-15T14:36:37.288Z,40.00
2019-02-15T14:39:07.461Z,41.60
2019-02-15T14:41:36.030Z,47.45
2019-02-15T14:44:05.249Z,45.43
2019-02-15T14:46:34.210Z,44.55
2019-02-15T14:49:02.676Z,48.13
2019-02-15T14:51:32.210Z,55.58
2019-02-15T14:54:00.860Z,42.43
2019-02-15T14:56:30.490Z,49.70
2019-02-15T14:58:59.535Z,45.95
2019-02-15T15:01:28.160Z,57.33
2019-02-15T15:03:57.046Z,39.67
2019-02-15T15:06:25.969Z,47.70
2019-02-15T15:08:54.598Z,79.90
2019-02-15T15:11:23.281Z,42.85
2019-02-15T15:13:52.181Z,42.45
2019-02-15T15:16:21.709Z,39.53
2019-02-15T15:18:51.337Z,36.85
2019-02-15T15:21:20.247Z,36.08
2019-02-15T15:23:48.839Z,36.42
2019-02-15T15:26:17.595Z,34.98
2019-02-15T15:28:46.145Z,37.30
2019-02-15T15:31:15.042Z,37.85
2019-02-15T15:33:43.701Z,36.70
2019-02-15T15:36:12.489Z,36.75
2019-02-15T15:38:41.439Z,36.68
2019-02-15T15:41:10.070Z,42.67
2019-02-15T15:43:38.909Z,50.38
2019-02-15T15:46:07.532Z,49.03
2019-02-15T15:48:36.247Z,45.85
2019-02-15T15:51:04.964Z,45.43
2019-02-15T15:53:33.771Z,41.23
2019-02-15T15:56:02.707Z,40.60
2019-02-15T15:58:31.557Z,42.43
2019-02-15T16:01:00.500Z,41.15
2019-02-15T16:03:29.109Z,42.93
2019-02-15T16:06:00.009Z,39.55
2019-02-15T16:08:28.318Z,35.90
2019-02-15T16:10:57.040Z,33.28
2019-02-15T16:13:25.767Z,36.83
2019-02-15T16:15:55.613Z,100.70
2019-02-15T16:18:33.059Z,36.60
2019-02-15T16:20:55.999Z,38.17
2019-02-15T16:23:24.824Z,39.75
2019-02-15T16:25:53.379Z,38.42
2019-02-15T16:28:22.252Z,35.48
2019-02-15T16:30:50.973Z,45.95
2019-02-15T16:33:19.931Z,37.48
2019-02-15T16:35:48.793Z,34.65
2019-02-15T16:38:17.374Z,36.23
2019-02-15T16:40:46.324Z,36.77
2019-02-15T16:43:15.364Z,37.33
2019-02-15T16:45:44.171Z,36.10
2019-02-15T16:48:12.853Z,38.60
2019-02-15T16:50:41.519Z,35.75
2019-02-15T16:53:10.338Z,34.30
2019-02-15T16:55:38.889Z,37.75
2019-02-15T16:58:07.822Z,35.58
2019-02-15T17:00:36.546Z,34.80
2019-02-15T17:03:05.639Z,36.30
2019-02-15T17:05:34.651Z,39.33
2019-02-15T17:08:03.430Z,39.15
2019-02-15T17:10:33.510Z,45.30
2019-02-15T17:13:02.192Z,38.78
2019-02-15T17:15:31.031Z,37.95
2019-02-15T17:17:59.588Z,38.90
2019-02-15T17:20:28.418Z,50.30
2019-02-15T17:22:57.102Z,41.68
2019-02-15T17:25:25.902Z,38.75
2019-02-15T17:27:54.842Z,43.58
2019-02-15T17:30:23.331Z,42.60
2019-02-15T17:32:51.857Z,38.60
2019-02-15T17:35:20.491Z,40.15
2019-02-15T17:37:49.299Z,44.45
2019-02-15T17:40:19.505Z,41.33
2019-02-15T17:42:48.211Z,41.75
2019-02-15T17:45:17.016Z,42.40
2019-02-15T17:47:46.830Z,42.67
2019-02-15T17:50:15.426Z,47.40
2019-02-15T17:52:44.631Z,49.38
2019-02-15T17:55:13.283Z,54.70
2019-02-15T17:57:41.864Z,62.05
2019-02-15T18:00:14.358Z,55.67
2019-02-15T18:02:43.144Z,53.15
2019-02-15T18:05:17.845Z,51.00
2019-02-15T18:07:47.453Z,54.70
2019-02-15T18:10:16.533Z,50.67
2019-02-15T18:12:45.402Z,51.68
2019-02-15T18:15:13.990Z,46.33
2019-02-15T18:17:42.905Z,49.88
2019-02-15T18:20:11.423Z,52.48
2019-02-15T18:22:40.078Z,51.88
2019-02-15T18:25:08.941Z,51.88
2019-02-15T18:30:17.818Z,54.90
2019-02-15T18:32:46.341Z,56.33
2019-02-15T18:35:15.107Z,57.55
2019-02-15T18:37:44.030Z,50.95
2019-02-15T18:40:12.612Z,50.58
2019-02-15T18:42:41.503Z,50.88
2019-02-15T18:45:11.719Z,51.48
2019-02-15T18:47:40.703Z,47.65
2019-02-15T18:50:09.897Z,51.00
2019-02-15T18:52:39.494Z,46.42
2019-02-15T18:55:08.989Z,45.67
2019-02-15T18:57:38.813Z,44.42
2019-02-15T19:00:14.904Z,47.23
2019-02-15T19:02:44.708Z,43.40
2019-02-15T19:05:13.549Z,46.37
2019-02-15T19:07:42.198Z,47.65
2019-02-15T19:10:12.558Z,42.85
2019-02-15T19:12:41.572Z,50.65
2019-02-15T19:15:11.812Z,49.95
2019-02-15T19:17:40.403Z,40.55
2019-02-15T19:20:10.408Z,34.20
2019-02-15T19:22:39.947Z,36.90
2019-02-15T19:25:09.704Z,35.25
2019-02-15T19:27:38.643Z,37.45
2019-02-15T19:30:11.916Z,37.17
2019-02-15T19:32:40.742Z,39.40
2019-02-15T19:35:09.493Z,39.42
2019-02-15T19:37:38.279Z,38.35
2019-02-15T19:40:08.424Z,42.38
2019-02-15T19:42:37.366Z,48.30
2019-02-15T19:45:07.612Z,50.90
2019-02-15T19:47:36.426Z,46.10
2019-02-15T19:50:06.573Z,41.92
2019-02-15T19:52:35.513Z,45.78
2019-02-15T19:55:04.366Z,43.63
2019-02-15T19:57:33.208Z,43.38
2019-02-15T20:00:01.962Z,46.48
2019-02-15T20:02:30.679Z,46.75
2019-02-15T20:04:59.290Z,45.63
2019-02-15T20:07:27.905Z,45.23
2019-02-15T20:09:56.631Z,43.87
2019-02-15T20:12:25.483Z,46.85
2019-02-15T20:14:54.186Z,52.05
2019-02-15T20:17:23.150Z,45.75
2019-02-15T20:19:53.183Z,50.30
2019-02-15T20:22:21.810Z,50.17
2019-02-15T20:24:50.637Z,49.20
2019-02-15T20:27:19.209Z,49.10
2019-02-15T20:29:49.723Z,47.38
2019-02-15T20:32:18.012Z,42.17
2019-02-15T20:34:46.622Z,34.95
2019-02-15T20:37:15.189Z,39.35
2019-02-15T20:39:45.035Z,48.38
2019-02-15T20:42:13.639Z,45.52
2019-02-15T20:44:42.267Z,43.00
2019-02-15T20:47:10.845Z,43.52
2019-02-15T20:49:39.464Z,43.68
2019-02-15T20:52:08.301Z,44.58
2019-02-15T20:54:36.903Z,36.95
2019-02-15T20:57:05.427Z,39.00
2019-02-15T20:59:37.067Z,39.03
2019-02-15T21:02:05.791Z,36.13
2019-02-15T21:04:34.333Z,35.70
2019-02-15T21:07:02.921Z,36.68
2019-02-15T21:09:31.391Z,34.10
2019-02-15T21:12:00.117Z,35.15
2019-02-15T21:14:28.608Z,33.53
2019-02-15T21:16:57.099Z,33.18
2019-02-15T21:19:25.685Z,35.92
2019-02-15T21:21:54.214Z,38.02
2019-02-15T21:24:22.786Z,38.15
2019-02-15T21:26:51.368Z,33.55
2019-02-15T21:29:19.938Z,35.60
2019-02-15T21:31:48.483Z,41.90
2019-02-15T21:34:17.114Z,40.50
2019-02-15T21:36:45.923Z,32.88
2019-02-15T21:39:14.513Z,32.63
2019-02-15T21:41:43.156Z,32.28
2019-02-15T21:44:11.702Z,33.83
2019-02-15T21:46:40.272Z,29.80
2019-02-15T21:49:09.272Z,38.58
2019-02-15T21:51:38.144Z,57.65
2019-02-15T21:54:06.873Z,56.37
2019-02-15T21:56:35.998Z,49.83
2019-02-15T21:59:04.864Z,46.00
2019-02-15T22:01:36.563Z,45.30
2019-02-15T22:04:05.109Z,52.43
2019-02-15T22:06:33.830Z,44.33
2019-02-15T22:09:02.668Z,38.48
2019-02-15T22:11:32.826Z,39.18
2019-02-15T22:14:01.573Z,37.25
2019-02-15T22:16:30.338Z,38.28
2019-02-15T22:18:58.904Z,37.60
2019-02-15T22:21:27.593Z,36.88
2019-02-15T22:23:56.243Z,37.50
2019-02-15T22:26:25.842Z,38.15
2019-02-15T22:28:54.365Z,37.08
2019-02-15T22:31:23.160Z,39.70
2019-02-15T22:33:51.845Z,46.50
2019-02-15T22:36:20.440Z,47.58
2019-02-15T22:38:49.164Z,47.65
2019-02-15T22:41:17.711Z,42.98
2019-02-15T22:43:46.658Z,41.10
2019-02-15T22:46:15.414Z,37.28
2019-02-15T22:48:44.224Z,37.63
2019-02-15T22:51:12.929Z,41.37
2019-02-15T22:53:41.639Z,38.95
2019-02-15T22:56:10.369Z,40.20
2019-02-15T22:58:38.956Z,38.95
2019-02-15T23:01:09.271Z,39.53
2019-02-15T23:03:40.250Z,43.58
2019-02-15T23:06:09.755Z,43.38
2019-02-15T23:08:38.400Z,40.43
2019-02-15T23:11:07.185Z,39.58
2019-02-15T23:13:36.130Z,40.33
2019-02-15T23:16:04.747Z,39.90
2019-02-15T23:18:33.530Z,37.35
2019-02-15T23:21:02.107Z,39.00
2019-02-15T23:23:30.638Z,38.53
2019-02-15T23:25:59.563Z,39.78
2019-02-15T23:28:29.342Z,38.10
2019-02-15T23:30:57.992Z,38.80
2019-02-15T23:33:26.647Z,36.40
2019-02-15T23:35:55.452Z,37.33
2019-02-15T23:38:24.311Z,47.58
2019-02-15T23:40:53.159Z,40.73
2019-02-15T23:43:22.108Z,48.87
2019-02-15T23:45:50.822Z,40.98
2019-02-15T23:48:19.432Z,39.53
2019-02-15T23:50:54.221Z,38.78
2019-02-15T23:53:18.852Z,36.50
2019-02-15T23:55:47.751Z,36.85
2019-02-15T23:58:16.401Z,37.67
